Time;durP1;ratioP1;P1;durP2;ratioP2;P2;SDS_P1;SDS_P2;PMS_P1;PMS_P2;Temp;Humidity;BMP_temperature;BMP_pressure;BME280_temperature;BME280_humidity;BME280_pressure;Samples;Min_cycle;Max_cycle;Signal;HPM_P1;HPM_P2
2021/05/31 00:01:36;;;;;;;8.40;4.83;;;;;;;8.77;93.66;97147.05;127762;1101;24376;-92
2021/05/31 00:04:06;;;;;;;6.23;4.35;;;;;;;8.79;93.68;97158.97;127751;1101;22750;-88
2021/05/31 00:06:44;;;;;;;4.80;3.75;;;;;;;8.85;93.94;97154.50;127706;1101;22836;-91
2021/05/31 00:09:14;;;;;;;5.33;3.30;;;;;;;8.88;93.82;97152.17;127741;1096;25851;-91
2021/05/31 00:11:44;;;;;;;7.75;4.10;;;;;;;8.92;93.46;97150.60;127735;1101;23110;-93
2021/05/31 00:14:13;;;;;;;10.65;5.80;;;;;;;8.98;93.54;97150.63;127759;1096;25883;-93
2021/05/31 00:16:43;;;;;;;9.03;5.88;;;;;;;8.96;93.65;97152.73;127722;1096;26411;-89
2021/05/31 00:19:14;;;;;;;7.47;5.37;;;;;;;8.99;93.34;97149.57;127721;1101;23060;-91
2021/05/31 00:21:44;;;;;;;8.63;6.03;;;;;;;9.03;93.04;97148.03;127757;1101;23904;-89
2021/05/31 00:24:14;;;;;;;8.58;5.88;;;;;;;9.05;93.20;97146.72;127768;1100;24745;-94
2021/05/31 00:26:46;;;;;;;7.10;4.70;;;;;;;9.08;93.21;97146.20;127771;1101;23208;-92
2021/05/31 00:29:16;;;;;;;6.63;5.58;;;;;;;9.11;93.18;97140.41;127731;1101;22784;-91
2021/05/31 00:31:46;;;;;;;8.48;5.75;;;;;;;9.11;92.87;97140.41;127726;1101;23234;-95
2021/05/31 00:34:16;;;;;;;6.57;4.87;;;;;;;9.08;92.67;97134.83;127716;1101;23450;-92
2021/05/31 00:36:46;;;;;;;7.20;4.95;;;;;;;9.02;92.72;97139.30;127750;1101;23197;-88
2021/05/31 00:39:19;;;;;;;8.18;4.95;;;;;;;8.98;92.62;97140.05;127787;1101;24722;-89
2021/05/31 00:41:51;;;;;;;7.13;5.13;;;;;;;8.91;92.29;97124.42;127774;1101;24034;-92
2021/05/31 00:44:23;;;;;;;6.05;4.35;;;;;;;8.90;92.56;97128.91;127757;1101;23519;-90
2021/05/31 00:46:53;;;;;;;7.83;4.63;;;;;;;8.92;92.52;97126.80;127721;1101;23668;-89
2021/05/31 00:49:23;;;;;;;;;;;;;;;8.95;92.59;97132.63;127776;1101;24644;-89
2021/05/31 00:51:54;;;;;;;5.93;3.83;;;;;;;8.92;92.73;97129.45;127753;1101;23540;-91
2021/05/31 00:54:23;;;;;;;;;;;;;;;8.87;92.63;97126.78;127775;1101;23382;-89
2021/05/31 00:56:53;;;;;;;7.58;4.78;;;;;;;8.89;92.63;97123.88;127743;1101;23631;-90
2021/05/31 00:59:23;;;;;;;5.57;4.63;;;;;;;8.89;92.59;97123.88;127802;1101;22759;-90
2021/05/31 01:01:53;;;;;;;7.13;4.43;;;;;;;8.94;92.62;97123.91;127754;1100;23777;-89
2021/05/31 01:04:24;;;;;;;7.75;5.65;;;;;;;8.90;92.25;97122.83;127791;1101;24262;-89
2021/05/31 01:07:03;;;;;;;7.38;5.23;;;;;;;8.86;92.21;97122.52;127742;1101;23381;-92
2021/05/31 01:09:45;;;;;;;9.13;5.45;;;;;;;8.80;92.39;97118.26;127733;1101;22783;-89
2021/05/31 01:12:29;;;;;;;7.58;5.30;;;;;;;8.81;92.33;97119.84;127734;1101;22756;-90
2021/05/31 01:15:05;;;;;;;8.07;4.60;;;;;;;8.84;92.46;97119.33;127795;1101;22786;-91
2021/05/31 01:17:46;;;;;;;7.00;5.28;;;;;;;8.86;92.28;97121.72;127738;1101;48376;-90
2021/05/31 01:20:39;;;;;;;8.23;5.30;;;;;;;8.85;92.26;97118.28;127768;1101;23054;-91
2021/05/31 01:23:13;;;;;;;7.73;5.88;;;;;;;8.81;92.40;97111.91;127748;1101;26713;-89
2021/05/31 01:25:56;;;;;;;6.90;4.40;;;;;;;8.80;92.45;97118.26;127760;1101;22838;-88
2021/05/31 01:28:45;;;;;;;8.55;5.13;;;;;;;8.68;92.02;97112.34;127810;1101;23049;-90
2021/05/31 01:31:18;;;;;;;8.40;5.65;;;;;;;8.64;92.09;97113.91;127749;1101;24116;-90
2021/05/31 01:33:50;;;;;;;6.30;4.50;;;;;;;8.67;92.10;97109.96;127738;1101;23374;-91
2021/05/31 01:36:24;;;;;;;6.65;4.70;;;;;;;8.66;92.32;97109.16;127734;1101;24990;-90
2021/05/31 01:38:56;;;;;;;5.95;4.43;;;;;;;8.65;92.11;97107.58;127764;1101;22766;-91
2021/05/31 01:41:27;;;;;;;7.70;4.33;;;;;;;8.60;91.89;97107.55;127774;1101;29429;-91
2021/05/31 01:43:57;;;;;;;7.28;4.80;;;;;;;8.57;91.69;97100.10;127836;1097;26760;-90
2021/05/31 01:46:28;;;;;;;8.95;5.05;;;;;;;8.50;91.57;97112.75;127782;1101;22773;-92
2021/05/31 01:48:59;;;;;;;5.90;3.93;;;;;;;8.45;91.34;97105.58;127780;1101;23415;-93
2021/05/31 01:51:29;;;;;;;6.90;4.48;;;;;;;8.40;91.31;97110.80;127782;1096;24556;-92
2021/05/31 01:54:00;;;;;;;5.00;3.88;;;;;;;8.37;91.51;97113.95;127807;1101;22952;-94
2021/05/31 01:56:32;;;;;;;8.10;4.20;;;;;;;8.32;91.68;97111.25;127753;1101;23212;-89
2021/05/31 01:59:02;;;;;;;8.08;4.95;;;;;;;8.28;91.66;97110.93;127768;1101;22783;-90
2021/05/31 02:01:33;;;;;;;7.15;4.45;;;;;;;8.26;91.91;97118.31;127753;1101;22764;-89
2021/05/31 02:04:03;;;;;;;7.35;4.88;;;;;;;8.25;91.88;97113.28;127751;1101;22748;-90
2021/05/31 02:06:33;;;;;;;7.10;4.70;;;;;;;8.18;92.10;97116.14;127741;1101;22825;-89
2021/05/31 02:09:04;;;;;;;6.75;4.70;;;;;;;8.07;91.86;97116.30;127722;1101;24276;-89
2021/05/31 02:11:41;;;;;;;7.93;5.10;;;;;;;8.07;92.17;97109.16;127754;1101;22794;-91
2021/05/31 02:14:16;;;;;;;7.33;4.98;;;;;;;8.01;92.14;97104.86;127718;1101;22785;-91
2021/05/31 02:16:54;;;;;;;7.33;4.83;;;;;;;7.90;92.28;97103.98;127758;1101;23494;-90
2021/05/31 02:19:25;;;;;;;9.70;5.03;;;;;;;7.80;92.29;97098.59;127728;1101;24109;-90
2021/05/31 02:21:57;;;;;;;6.55;4.85;;;;;;;7.74;92.08;97097.75;127821;1101;26131;-89
2021/05/31 02:24:31;;;;;;;6.68;4.80;;;;;;;7.76;92.61;97102.78;127834;1101;22784;-90
2021/05/31 02:27:01;;;;;;;8.38;4.80;;;;;;;7.84;92.46;97104.16;127742;1096;25899;-89
2021/05/31 02:29:30;;;;;;;;;;;;;;;7.95;92.99;97105.88;127764;1101;30778;-89
2021/05/31 02:32:00;;;;;;;7.48;5.10;;;;;;;8.00;93.25;97104.07;127751;1101;22583;-92
2021/05/31 02:34:31;;;;;;;9.75;5.83;;;;;;;8.05;92.70;97100.70;127772;1101;24031;-92
2021/05/31 02:37:02;;;;;;;9.10;6.00;;;;;;;8.09;92.87;97104.43;127735;1101;27227;-90
2021/05/31 02:39:30;;;;;;;;;;;;;;;8.08;92.98;97105.48;127752;1101;25557;-90
2021/05/31 02:42:00;;;;;;;11.03;7.53;;;;;;;8.05;93.51;97105.98;127756;1101;26172;-88
2021/05/31 02:44:30;;;;;;;13.30;8.90;;;;;;;8.01;93.79;97108.30;127797;1101;24197;-89
2021/05/31 02:46:59;;;;;;;13.57;8.97;;;;;;;7.98;93.58;97106.16;127739;1101;23718;-90
2021/05/31 02:49:29;;;;;;;12.58;8.50;;;;;;;7.98;93.82;97108.80;127727;1097;27188;-89
2021/05/31 02:51:59;;;;;;;14.53;9.07;;;;;;;7.94;94.49;97105.08;127829;1101;22786;-89
2021/05/31 02:54:29;;;;;;;12.70;7.98;;;;;;;7.97;94.55;97103.77;127788;1096;22845;-90
2021/05/31 02:56:59;;;;;;;11.15;8.18;;;;;;;7.98;94.18;97100.88;127816;1101;22833;-88
2021/05/31 02:59:29;;;;;;;12.88;8.60;;;;;;;8.01;94.45;97107.50;127779;1101;35005;-92
2021/05/31 03:01:59;;;;;;;14.57;9.00;;;;;;;8.00;94.64;97104.07;127841;1097;26228;-89
2021/05/31 03:04:28;;;;;;;11.80;7.90;;;;;;;8.03;94.26;97108.08;127861;1101;23703;-92
2021/05/31 03:06:58;;;;;;;11.57;8.60;;;;;;;8.06;94.22;97102.30;127772;1101;22828;-90
2021/05/31 03:09:28;;;;;;;13.03;8.80;;;;;;;8.09;94.46;97100.99;127825;1096;24237;-91
2021/05/31 03:11:58;;;;;;;13.00;9.00;;;;;;;8.13;94.38;97100.23;127794;1097;25868;-91
2021/05/31 03:14:28;;;;;;;9.58;7.05;;;;;;;8.19;94.35;97101.89;127866;1097;27769;-88
2021/05/31 03:16:58;;;;;;;11.38;7.43;;;;;;;8.20;94.46;97089.48;127801;1101;23378;-89
2021/05/31 03:19:28;;;;;;;11.58;6.63;;;;;;;8.23;94.25;97096.90;127828;1101;24301;-89
2021/05/31 03:21:58;;;;;;;10.87;7.03;;;;;;;8.28;94.07;97094.29;127875;1101;25560;-88
2021/05/31 03:24:28;;;;;;;8.88;6.20;;;;;;;8.33;94.28;97092.51;127930;1097;24345;-88
2021/05/31 03:26:58;;;;;;;11.63;7.33;;;;;;;8.44;93.86;97095.23;127818;1101;26033;-88
2021/05/31 03:29:28;;;;;;;9.23;6.68;;;;;;;8.52;94.01;97100.87;127871;1101;27226;-88
2021/05/31 03:31:59;;;;;;;10.70;7.53;;;;;;;8.55;93.56;97092.43;127881;1101;24351;-91
2021/05/31 03:34:27;;;;;;;;;;;;;;;8.57;93.49;97102.74;127841;1101;22780;-91
2021/05/31 03:36:57;;;;;;;12.18;7.60;;;;;;;8.52;93.29;97097.43;127804;1101;23285;-90
2021/05/31 03:39:27;;;;;;;10.40;7.45;;;;;;;8.43;93.79;97096.29;127867;1096;22789;-91
2021/05/31 03:41:57;;;;;;;11.80;7.58;;;;;;;8.43;93.63;97091.01;127843;1096;26223;-88
2021/05/31 03:44:27;;;;;;;11.18;7.65;;;;;;;8.48;93.20;97093.70;127847;1101;22784;-91
2021/05/31 03:46:57;;;;;;;11.45;7.33;;;;;;;8.54;93.55;97092.69;127797;1101;23040;-90
2021/05/31 03:49:27;;;;;;;12.68;8.60;;;;;;;8.61;93.61;97093.28;127848;1101;23391;-91
2021/05/31 03:51:57;;;;;;;14.10;8.90;;;;;;;8.66;93.70;97101.23;127846;1101;25003;-90
2021/05/31 03:54:27;;;;;;;11.63;7.35;;;;;;;8.70;93.18;97093.59;127802;1101;27633;-89
2021/05/31 03:56:57;;;;;;;11.18;6.98;;;;;;;8.71;93.06;97093.33;127799;1101;25581;-91
2021/05/31 03:59:28;;;;;;;12.55;8.50;;;;;;;8.73;93.21;97096.55;127807;1101;23857;-89
2021/05/31 04:01:59;;;;;;;12.80;7.28;;;;;;;8.78;93.17;97101.06;127919;1101;23534;-88
2021/05/31 04:04:37;;;;;;;12.60;7.83;;;;;;;8.77;93.05;97094.98;127894;1096;27397;-88
2021/05/31 04:12:57;;;;;;;11.90;8.00;;;;;;;8.71;93.42;97093.33;127887;1101;24354;-88
2021/05/31 04:15:27;;;;;;;13.90;9.45;;;;;;;8.72;93.08;97094.13;127872;1095;26194;-89
2021/05/31 04:17:57;;;;;;;15.08;9.70;;;;;;;8.74;93.42;97095.49;127817;1101;22791;-89
2021/05/31 04:20:27;;;;;;;14.20;8.37;;;;;;;8.79;93.46;97100.80;127787;1101;30081;-89
2021/05/31 04:22:57;;;;;;;11.88;6.63;;;;;;;8.83;93.37;97106.38;127840;1095;27812;-88
2021/05/31 04:25:27;;;;;;;13.05;8.20;;;;;;;8.81;93.39;97109.27;127804;1101;23590;-89
2021/05/31 04:27:57;;;;;;;12.40;8.25;;;;;;;8.78;93.42;97103.70;127819;1101;23254;-91
2021/05/31 04:30:26;;;;;;;13.35;8.58;;;;;;;8.74;93.32;97119.28;127857;1101;22823;-89
2021/05/31 04:32:56;;;;;;;13.20;8.70;;;;;;;8.75;93.39;97112.15;127802;1101;24915;-90
2021/05/31 04:35:26;;;;;;;12.35;8.00;;;;;;;8.79;93.17;97115.88;127815;1101;24211;-89
2021/05/31 04:37:56;;;;;;;13.00;7.88;;;;;;;8.79;93.14;97121.95;127791;1097;26595;-90
2021/05/31 04:40:27;;;;;;;12.10;8.23;;;;;;;8.82;93.05;97105.58;127816;1096;25893;-88
2021/05/31 04:42:57;;;;;;;11.18;7.60;;;;;;;8.86;93.09;97111.14;127803;1101;24504;-91
2021/05/31 04:45:27;;;;;;;14.60;9.17;;;;;;;8.90;92.97;97105.11;127838;1101;23002;-89
2021/05/31 04:47:56;;;;;;;;;;;;;;;8.96;92.87;97107.78;127847;1101;27552;-88
2021/05/31 04:50:26;;;;;;;10.55;7.13;;;;;;;9.00;93.12;97111.50;127891;1101;23918;-88
2021/05/31 04:52:56;;;;;;;12.15;8.50;;;;;;;8.98;92.63;97098.53;127842;1097;29925;-90
2021/05/31 04:55:26;;;;;;;12.83;8.80;;;;;;;9.02;93.13;97093.55;127783;1101;26159;-89
2021/05/31 04:57:56;;;;;;;12.43;8.08;;;;;;;9.04;92.83;97097.53;127816;1101;24667;-89
2021/05/31 05:00:26;;;;;;;14.07;8.57;;;;;;;9.07;92.79;97096.22;127901;1101;26167;-87
2021/05/31 05:02:56;;;;;;;13.75;8.75;;;;;;;9.09;92.61;97094.91;127803;1101;22780;-88
2021/05/31 05:05:26;;;;;;;13.13;8.23;;;;;;;9.09;92.86;97086.97;127814;1101;23009;-92
2021/05/31 05:07:56;;;;;;;12.30;7.75;;;;;;;9.08;92.73;97090.66;127899;1101;23380;-88
2021/05/31 05:10:26;;;;;;;12.43;7.95;;;;;;;9.05;92.82;97083.25;127802;1101;23661;-90
2021/05/31 05:12:56;;;;;;;9.90;7.30;;;;;;;9.04;92.54;97086.16;127799;1101;23844;-91
2021/05/31 05:15:26;;;;;;;11.30;7.30;;;;;;;9.06;92.86;97099.91;127818;1101;23701;-90
2021/05/31 05:17:57;;;;;;;12.40;7.90;;;;;;;9.10;93.24;97103.63;127827;1095;25297;-88
2021/05/31 05:20:32;;;;;;;10.53;8.43;;;;;;;9.16;93.36;97097.33;127821;1096;26226;-90
2021/05/31 05:23:03;;;;;;;11.90;8.45;;;;;;;9.27;93.47;97101.59;127749;1101;30381;-88
2021/05/31 05:25:33;;;;;;;12.43;7.95;;;;;;;9.34;93.80;97096.09;127719;1101;22760;-90
2021/05/31 05:28:03;;;;;;;14.57;7.73;;;;;;;9.40;93.49;97093.19;127788;1101;29411;-89
2021/05/31 05:30:33;;;;;;;9.88;6.75;;;;;;;9.47;93.23;97091.13;127755;1101;23752;-89
2021/05/31 05:33:03;;;;;;;11.35;6.85;;;;;;;9.54;92.58;97093.52;127731;1101;23107;-90
2021/05/31 05:35:35;;;;;;;11.80;8.08;;;;;;;9.55;92.25;97091.66;127758;1101;22751;-89
2021/05/31 05:38:14;;;;;;;10.55;7.70;;;;;;;9.55;91.87;97087.16;127726;1101;26727;-90
2021/05/31 05:43:47;;;;;;;12.00;7.63;;;;;;;9.68;92.03;97096.47;127735;1101;23280;-90
2021/05/31 05:46:36;;;;;;;11.60;7.85;;;;;;;9.70;91.75;97100.45;127814;1101;23304;-90
2021/05/31 05:49:06;;;;;;;12.30;8.48;;;;;;;9.77;91.86;97100.22;127845;1101;22764;-88
2021/05/31 05:51:37;;;;;;;12.18;8.93;;;;;;;9.81;91.54;97101.28;127771;1101;25138;-90
2021/05/31 05:54:07;;;;;;;11.80;8.35;;;;;;;9.87;91.66;97105.55;127766;1101;22759;-89
2021/05/31 05:56:37;;;;;;;9.78;7.48;;;;;;;9.90;91.34;97105.02;127760;1101;22846;-92
2021/05/31 05:59:06;;;;;;;;;;;;;;;9.95;91.53;97102.38;127769;1101;22760;-90
2021/05/31 06:01:37;;;;;;;11.48;8.38;;;;;;;10.03;91.49;97099.23;127740;1101;23271;-89
2021/05/31 06:04:07;;;;;;;8.83;6.98;;;;;;;10.12;91.60;97100.28;127836;1101;27299;-88
2021/05/31 06:06:37;;;;;;;10.75;6.35;;;;;;;10.17;91.09;97098.72;127842;1101;24698;-88
2021/05/31 06:09:08;;;;;;;10.68;7.50;;;;;;;10.23;90.96;97097.69;127779;1101;22801;-90
2021/05/31 06:11:38;;;;;;;10.78;7.60;;;;;;;10.35;90.62;97100.88;127743;1101;24053;-92
2021/05/31 06:14:09;;;;;;;9.90;7.50;;;;;;;10.60;90.86;97092.14;127753;1101;24872;-90
2021/05/31 06:16:40;;;;;;;12.53;7.80;;;;;;;10.93;90.58;97094.22;127756;1101;24531;-90
2021/05/31 06:19:10;;;;;;;11.58;6.78;;;;;;;11.42;89.86;97098.09;127791;1101;26439;-90
2021/05/31 06:21:40;;;;;;;9.88;6.60;;;;;;;12.06;89.52;97100.71;127742;1101;24533;-90
2021/05/31 06:24:12;;;;;;;10.38;7.25;;;;;;;12.21;87.42;97097.16;127799;1101;23175;-90
2021/05/31 06:26:42;;;;;;;9.15;7.23;;;;;;;12.15;86.15;97101.73;127739;1095;26385;-90
2021/05/31 06:29:12;;;;;;;10.43;6.67;;;;;;;12.15;85.51;97093.75;127741;1101;23794;-92
2021/05/31 06:31:41;;;;;;;8.45;5.65;;;;;;;12.92;84.88;97087.80;127719;1101;23734;-89
2021/05/31 06:34:11;;;;;;;9.35;6.58;;;;;;;13.56;83.92;97090.08;127850;1096;25815;-89
2021/05/31 06:36:41;;;;;;;9.50;6.33;;;;;;;13.83;83.46;97086.02;127763;1101;24763;-89
2021/05/31 06:39:12;;;;;;;8.95;6.30;;;;;;;14.71;82.08;97087.12;127807;1096;23165;-89
2021/05/31 06:41:42;;;;;;;8.95;5.98;;;;;;;15.36;81.72;97082.47;127764;1101;22783;-90
2021/05/31 06:44:12;;;;;;;12.43;5.60;;;;;;;15.94;78.14;97081.05;127755;1101;24006;-90
2021/05/31 06:46:43;;;;;;;8.18;5.33;;;;;;;15.37;76.67;97083.26;127768;1101;24401;-90
2021/05/31 06:49:13;;;;;;;8.23;5.58;;;;;;;16.79;80.28;97084.71;127761;1101;22821;-92
2021/05/31 06:51:43;;;;;;;7.15;5.23;;;;;;;18.58;77.98;97083.88;127734;1101;24446;-91
2021/05/31 06:54:13;;;;;;;9.75;5.30;;;;;;;20.05;72.32;97080.66;127851;1101;23337;-89
2021/05/31 06:56:43;;;;;;;8.30;6.25;;;;;;;19.88;68.23;97081.58;127828;1101;25386;-88
2021/05/31 06:59:13;;;;;;;8.48;5.95;;;;;;;19.55;66.15;97081.43;127735;1096;26272;-92
2021/05/31 07:01:43;;;;;;;;;;;;;;;19.16;62.53;97087.91;127791;1101;22842;-90
2021/05/31 07:04:15;;;;;;;7.73;5.20;;;;;;;20.30;64.64;97078.90;127738;1101;22672;-89
2021/05/31 07:06:45;;;;;;;6.33;5.13;;;;;;;22.62;60.96;97073.64;127716;1101;22846;-96
2021/05/31 07:09:15;;;;;;;7.50;5.20;;;;;;;24.03;59.19;97083.73;127727;1096;26270;-95
2021/05/31 07:11:46;;;;;;;6.10;4.83;;;;;;;23.71;51.86;97077.60;127739;1101;27010;-96
2021/05/31 07:14:19;;;;;;;5.58;4.83;;;;;;;21.57;49.83;97071.73;127737;1101;25487;-95
2021/05/31 07:16:51;;;;;;;6.08;5.28;;;;;;;21.67;51.35;97081.26;127729;1101;25881;-90
2021/05/31 07:19:24;;;;;;;5.70;4.65;;;;;;;20.95;50.93;97075.44;127786;1101;24418;-93
2021/05/31 07:21:55;;;;;;;5.93;4.90;;;;;;;20.48;50.38;97069.58;127725;1101;22973;-93
2021/05/31 07:24:25;;;;;;;10.45;4.55;;;;;;;18.97;52.23;97077.52;127806;1101;25047;-90
2021/05/31 07:26:56;;;;;;;10.23;5.43;;;;;;;17.91;54.51;97074.43;127817;1101;24134;-91
2021/05/31 07:29:26;;;;;;;6.80;4.63;;;;;;;17.24;56.45;97071.22;127916;1101;22929;-91
2021/05/31 07:31:56;;;;;;;8.93;4.60;;;;;;;16.86;57.44;97069.77;128135;1101;24187;-89
2021/05/31 07:34:26;;;;;;;8.88;5.18;;;;;;;16.40;58.22;97072.77;128075;1101;22805;-91
2021/05/31 07:36:57;;;;;;;7.10;4.75;;;;;;;16.14;59.10;97074.45;127890;1101;23494;-90
2021/05/31 07:39:27;;;;;;;7.95;4.80;;;;;;;16.40;61.13;97075.44;127922;1096;23297;-90
2021/05/31 07:41:57;;;;;;;7.73;4.85;;;;;;;16.95;59.89;97083.22;127908;1096;26222;-94
2021/05/31 07:44:27;;;;;;;9.20;5.05;;;;;;;16.35;59.17;97083.60;127842;1101;22853;-92
2021/05/31 07:46:57;;;;;;;7.48;4.78;;;;;;;15.69;60.03;97082.38;127773;1101;24447;-92
2021/05/31 07:49:27;;;;;;;8.28;5.28;;;;;;;15.23;61.30;97075.24;127761;1101;22896;-91
2021/05/31 07:52:07;;;;;;;7.23;4.83;;;;;;;15.12;62.43;97076.52;127797;1101;26239;-92
2021/05/31 07:54:37;;;;;;;7.38;4.85;;;;;;;15.85;63.74;97078.28;127732;1101;31348;-91
2021/05/31 07:57:06;;;;;;;;;;;;;;;16.10;61.90;97070.80;127787;1101;22762;-92
2021/05/31 07:59:36;;;;;;;6.85;4.78;;;;;;;15.78;61.38;97069.10;127783;1101;23393;-91
2021/05/31 08:02:07;;;;;;;7.73;4.85;;;;;;;15.28;61.85;97063.66;127723;1101;24154;-91
2021/05/31 08:04:35;;;;;;;;;;;;;;;15.49;62.83;97074.75;127764;1101;26310;-92
2021/05/31 08:07:06;;;;;;;6.43;4.48;;;;;;;15.75;62.67;97067.80;127720;1101;24192;-91
2021/05/31 08:09:35;;;;;;;;;;;;;;;18.85;62.39;97074.70;127746;1101;29191;-92
2021/05/31 08:12:06;;;;;;;6.70;4.47;;;;;;;21.52;57.39;97054.96;127757;1101;25925;-90
2021/05/31 08:14:36;;;;;;;6.45;3.55;;;;;;;23.58;55.60;97051.77;127724;1101;22863;-92
2021/05/31 08:17:06;;;;;;;6.33;4.13;;;;;;;22.65;53.48;97049.40;127734;1101;31414;-89
2021/05/31 08:19:37;;;;;;;6.73;3.90;;;;;;;22.69;51.25;97049.52;127760;1101;22794;-90
2021/05/31 08:22:08;;;;;;;5.25;3.55;;;;;;;20.78;48.32;97053.28;127785;1101;24475;-91
2021/05/31 08:24:38;;;;;;;8.03;3.88;;;;;;;19.50;50.74;97055.48;127803;1101;25300;-94
2021/05/31 08:27:09;;;;;;;8.68;4.13;;;;;;;18.59;51.34;97053.27;127756;1101;22922;-91
2021/05/31 08:29:38;;;;;;;;;;;;;;;17.63;51.86;97054.31;127837;1101;24748;-91
2021/05/31 08:32:08;;;;;;;7.15;4.33;;;;;;;16.90;53.69;97056.58;127794;1101;23787;-91
2021/05/31 08:34:38;;;;;;;5.08;4.18;;;;;;;16.28;54.99;97056.46;127799;1101;22825;-90
2021/05/31 08:37:08;;;;;;;6.45;3.88;;;;;;;16.30;56.56;97044.36;127800;1096;25857;-90
2021/05/31 08:39:38;;;;;;;7.53;3.40;;;;;;;16.21;56.86;97050.75;127787;1101;23845;-90
2021/05/31 08:42:09;;;;;;;6.40;3.08;;;;;;;16.17;56.54;97042.52;127803;1101;25723;-90
2021/05/31 08:44:39;;;;;;;6.18;3.33;;;;;;;18.11;59.87;97038.13;127737;1096;27205;-91
2021/05/31 08:47:10;;;;;;;4.95;3.68;;;;;;;21.68;57.38;97033.47;127749;1096;27203;-91
2021/05/31 08:49:41;;;;;;;3.90;3.03;;;;;;;24.13;52.32;97034.42;127732;1101;24379;-93
2021/05/31 08:52:11;;;;;;;6.65;3.45;;;;;;;24.33;44.90;97021.67;127832;1101;24576;-90
2021/05/31 08:54:40;;;;;;;4.28;2.95;;;;;;;22.37;43.15;97016.20;127849;1101;22842;-90
2021/05/31 08:57:10;;;;;;;4.93;3.23;;;;;;;20.57;44.35;97018.33;127850;1101;24113;-88
2021/05/31 08:59:41;;;;;;;6.98;3.40;;;;;;;19.47;45.23;97025.78;127891;1101;22762;-88
2021/05/31 09:02:11;;;;;;;7.58;4.10;;;;;;;18.54;47.41;97015.82;127843;1101;22778;-88
2021/05/31 09:04:47;;;;;;;8.35;3.83;;;;;;;17.97;49.41;97014.14;127847;1101;27890;-88
2021/05/31 09:07:20;;;;;;;5.35;3.73;;;;;;;17.59;49.40;97005.87;127843;1101;22766;-88
2021/05/31 09:09:52;;;;;;;4.78;4.03;;;;;;;16.93;50.13;97013.11;127757;1101;26060;-90
2021/05/31 09:12:28;;;;;;;7.38;3.85;;;;;;;16.44;51.01;97006.83;127797;1101;27053;-90
2021/05/31 09:15:00;;;;;;;6.20;4.20;;;;;;;16.15;52.35;97009.16;127809;1101;24371;-89
2021/05/31 09:17:33;;;;;;;6.30;3.65;;;;;;;16.09;52.82;97010.38;127814;1101;26958;-90
2021/05/31 09:20:05;;;;;;;6.38;4.28;;;;;;;15.77;53.32;97017.52;127806;1101;23504;-89
2021/05/31 09:22:45;;;;;;;6.68;4.73;;;;;;;15.43;54.00;97015.27;127838;1101;23875;-88
2021/05/31 09:25:29;;;;;;;7.75;4.58;;;;;;;15.04;54.77;97024.57;127870;1101;22760;-95
2021/05/31 09:28:02;;;;;;;7.05;4.40;;;;;;;14.57;55.74;97019.58;127806;1101;23053;-91
2021/05/31 09:30:41;;;;;;;7.25;4.40;;;;;;;14.15;56.84;97021.30;127743;1101;24375;-87
2021/05/31 09:33:13;;;;;;;7.28;5.18;;;;;;;13.66;58.26;97022.56;127813;1101;24787;-87
2021/05/31 09:35:45;;;;;;;6.60;4.78;;;;;;;13.61;59.69;97010.08;127826;1101;22811;-88
2021/05/31 09:38:18;;;;;;;9.33;4.23;;;;;;;13.70;61.07;97018.23;127774;1101;35219;-93
2021/05/31 09:40:57;;;;;;;7.10;4.50;;;;;;;13.60;61.29;97019.16;127780;1096;22759;-93
2021/05/31 09:43:27;;;;;;;10.13;5.13;;;;;;;13.65;62.13;97021.77;127856;1101;22767;-88
2021/05/31 09:45:58;;;;;;;6.28;4.75;;;;;;;13.80;62.78;97019.97;127884;1096;25228;-88
2021/05/31 09:48:35;;;;;;;8.70;4.70;;;;;;;13.99;61.93;97010.08;127898;1101;23465;-88
2021/05/31 09:51:05;;;;;;;6.68;4.40;;;;;;;14.33;62.83;97009.80;127874;1096;27627;-89
2021/05/31 09:53:38;;;;;;;6.45;4.00;;;;;;;14.68;63.16;97015.66;127836;1101;24314;-87
2021/05/31 09:56:17;;;;;;;6.35;4.53;;;;;;;14.88;62.62;97009.14;127769;1101;23083;-87
2021/05/31 09:59:01;;;;;;;7.23;4.03;;;;;;;14.99;62.90;97003.31;127745;1102;22836;-89
2021/05/31 10:01:40;;;;;;;5.58;3.70;;;;;;;15.26;62.69;97002.52;127747;1101;26548;-87
2021/05/31 10:04:25;;;;;;;8.70;3.48;;;;;;;15.49;62.73;96997.27;127849;1101;26105;-87
2021/05/31 10:06:59;;;;;;;8.58;4.88;;;;;;;15.49;62.50;96999.94;127853;1101;29726;-88
2021/05/31 10:09:31;;;;;;;4.90;3.80;;;;;;;15.38;62.38;96994.00;127912;1101;23994;-87
2021/05/31 10:12:02;;;;;;;6.08;3.90;;;;;;;15.21;62.16;96991.95;127895;1101;26406;-89
2021/05/31 10:14:33;;;;;;;4.80;2.98;;;;;;;15.10;60.97;96995.91;127823;1101;24443;-87
2021/05/31 10:17:04;;;;;;;3.58;2.35;;;;;;;15.06;61.38;96994.90;127856;1101;24779;-88
2021/05/31 10:19:36;;;;;;;3.35;2.43;;;;;;;15.09;60.74;96995.12;127840;1101;31816;-87
2021/05/31 10:22:07;;;;;;;4.45;2.65;;;;;;;15.06;60.44;96997.57;127829;1101;24109;-88
2021/05/31 10:24:39;;;;;;;6.63;2.55;;;;;;;15.06;61.00;97005.58;127831;1096;26223;-87
2021/05/31 10:27:13;;;;;;;3.78;2.40;;;;;;;14.82;59.57;97001.23;127772;1101;22760;-89
2021/05/31 10:29:45;;;;;;;4.70;2.30;;;;;;;14.64;59.33;97003.97;127747;1096;25887;-89
2021/05/31 10:32:15;;;;;;;4.90;2.75;;;;;;;14.38;60.52;97006.27;127750;1101;22780;-89
2021/05/31 10:34:49;;;;;;;3.98;2.38;;;;;;;14.33;60.79;97003.67;127739;1101;22762;-94
2021/05/31 10:37:21;;;;;;;4.23;2.68;;;;;;;14.42;61.34;97002.72;127765;1101;22865;-91
2021/05/31 10:40:04;;;;;;;4.55;2.80;;;;;;;14.49;60.39;97003.14;127812;1101;22764;-88
2021/05/31 10:42:44;;;;;;;2.60;2.10;;;;;;;14.64;61.10;97007.45;127794;1101;22762;-88
2021/05/31 10:45:30;;;;;;;3.53;2.43;;;;;;;14.89;60.90;97000.05;127747;1096;29143;-90
2021/05/31 10:48:10;;;;;;;5.03;2.35;;;;;;;15.19;60.53;96994.11;127784;1101;22774;-90
2021/05/31 10:50:44;;;;;;;3.03;1.98;;;;;;;15.59;59.83;96991.67;127796;1101;27043;-87
2021/05/31 10:53:30;;;;;;;3.28;1.95;;;;;;;15.91;59.06;96988.86;127769;1101;22763;-92
2021/05/31 10:56:03;;;;;;;3.38;2.00;;;;;;;16.54;59.38;96982.49;127788;1101;24464;-90
2021/05/31 10:58:36;;;;;;;3.13;2.10;;;;;;;17.04;57.44;96976.92;127756;1101;23866;-89
2021/05/31 11:01:08;;;;;;;3.03;1.78;;;;;;;17.08;55.90;96980.55;127789;1101;22787;-90
2021/05/31 11:03:51;;;;;;;2.60;1.68;;;;;;;17.17;55.61;96972.52;127825;1101;26189;-88
2021/05/31 11:06:24;;;;;;;2.63;1.90;;;;;;;17.36;55.88;96959.66;127823;1101;23720;-90
2021/05/31 11:08:55;;;;;;;4.50;1.60;;;;;;;17.52;54.00;96959.98;127853;1101;23822;-90
2021/05/31 11:11:28;;;;;;;4.83;2.10;;;;;;;17.45;53.93;96959.64;127870;1101;22919;-90
2021/05/31 11:14:01;;;;;;;5.93;2.05;;;;;;;17.18;53.60;96960.73;127829;1101;22757;-90
2021/05/31 11:16:35;;;;;;;2.23;1.77;;;;;;;16.75;53.78;96966.73;127895;1101;22826;-89
2021/05/31 11:19:06;;;;;;;3.28;2.30;;;;;;;16.63;54.24;96969.95;127796;1101;22767;-91
2021/05/31 11:21:41;;;;;;;3.23;1.78;;;;;;;16.84;54.97;96959.50;127767;1101;24371;-91
2021/05/31 11:24:14;;;;;;;2.78;1.83;;;;;;;16.76;53.22;96964.84;127795;1101;23389;-90
2021/05/31 11:26:48;;;;;;;4.53;1.75;;;;;;;16.60;53.51;96973.22;127772;1101;23224;-89
2021/05/31 11:29:19;;;;;;;3.00;2.08;;;;;;;16.82;52.19;96958.23;127780;1101;22790;-92
2021/05/31 11:31:49;;;;;;;2.48;1.53;;;;;;;16.58;50.60;96964.71;127715;1101;23973;-89
2021/05/31 11:34:19;;;;;;;4.35;2.00;;;;;;;16.68;51.96;96962.91;127761;1101;22788;-92
2021/05/31 11:36:49;;;;;;;2.28;1.70;;;;;;;16.98;51.55;96962.07;127803;1101;26395;-90
2021/05/31 11:39:19;;;;;;;3.88;2.00;;;;;;;17.16;52.06;96952.97;127761;1097;27079;-90
2021/05/31 11:41:53;;;;;;;4.13;1.90;;;;;;;17.46;50.75;96950.53;127801;1101;25536;-89
2021/05/31 11:44:29;;;;;;;2.40;1.50;;;;;;;17.66;50.67;96955.27;127803;1101;23352;-90
2021/05/31 11:47:01;;;;;;;2.60;1.68;;;;;;;17.82;50.35;96960.97;127805;1101;24421;-94
2021/05/31 11:49:38;;;;;;;2.88;1.65;;;;;;;17.54;49.98;96957.77;127792;1101;25548;-92
2021/05/31 11:52:10;;;;;;;2.00;1.50;;;;;;;17.31;49.87;96948.27;127792;1101;22771;-90
2021/05/31 11:54:42;;;;;;;2.05;1.40;;;;;;;17.14;50.08;96957.86;127847;1101;22945;-90
2021/05/31 11:57:17;;;;;;;4.60;1.57;;;;;;;17.06;50.94;96955.96;127853;1096;22766;-91
2021/05/31 11:59:56;;;;;;;2.30;1.85;;;;;;;17.28;51.26;96951.59;127830;1101;22849;-90